Sandringham, United Kingdom
Current Conditions -  °F | °C
As of 11:50 PM on Sunday 21 Dec 2014 (Local Time) from EGYM Reporting Station
Broken Clouds Broken Clouds  
Wind Chill: 11°   Ceiling: 1900
Heat Index: 11°   Visibility: 6mi
Dew Point:   Wind: 24mph
Humidity: 88%   Direction: 230°SW
Pressure: 30"   Gusts: NA
Location:  52.82°N, 0.5°E
Report Text: EGYM 212350Z AUTO 23021KT 9999 SCT012/// BKN019/// 11/09 Q1016
Loading
Personal Weather Stations






























Interactive Weather Map New forecast layout! Learn more

10-Day Weather Forecast

Advertisements
Track Severe Weather on mobile